sensor_id;sensor_type;location;lat;lon;timestamp;temperature;humidity
9998;DHT22;5038;53.064;8.624;2023-05-02T00:01:30;12.70;99.90
9998;DHT22;5038;53.064;8.624;2023-05-02T00:03:59;12.70;99.90
9998;DHT22;5038;53.064;8.624;2023-05-02T00:06:29;12.70;99.90
9998;DHT22;5038;53.064;8.624;2023-05-02T00:08:58;12.70;99.90
9998;DHT22;5038;53.064;8.624;2023-05-02T00:11:26;12.70;99.90
9998;DHT22;5038;53.064;8.624;2023-05-02T00:13:54;12.70;99.90
9998;DHT22;5038;53.064;8.624;2023-05-02T00:16:22;12.70;99.90
9998;DHT22;5038;53.064;8.624;2023-05-02T00:18:50;12.70;99.90
9998;DHT22;5038;53.064;8.624;2023-05-02T00:21:19;12.70;99.90
9998;DHT22;5038;53.064;8.624;2023-05-02T00:23:47;12.70;99.90
9998;DHT22;5038;53.064;8.624;2023-05-02T00:26:17;12.70;99.90
9998;DHT22;5038;53.064;8.624;2023-05-02T00:28:45;12.70;99.90
9998;DHT22;5038;53.064;8.624;2023-05-02T00:31:13;12.70;99.90
9998;DHT22;5038;53.064;8.624;2023-05-02T00:33:42;12.70;99.90
9998;DHT22;5038;53.064;8.624;2023-05-02T00:36:14;12.60;99.90
9998;DHT22;5038;53.064;8.624;2023-05-02T00:38:44;12.60;99.90
9998;DHT22;5038;53.064;8.624;2023-05-02T00:41:12;12.60;99.90
9998;DHT22;5038;53.064;8.624;2023-05-02T00:43:40;12.60;99.90
9998;DHT22;5038;53.064;8.624;2023-05-02T00:46:09;12.60;99.90
9998;DHT22;5038;53.064;8.624;2023-05-02T00:48:38;12.60;99.90
9998;DHT22;5038;53.064;8.624;2023-05-02T00:51:07;12.60;99.90
9998;DHT22;5038;53.064;8.624;2023-05-02T00:53:38;12.60;99.90
9998;DHT22;5038;53.064;8.624;2023-05-02T00:56:08;12.60;99.90
9998;DHT22;5038;53.064;8.624;2023-05-02T00:58:37;12.60;99.90
9998;DHT22;5038;53.064;8.624;2023-05-02T01:01:21;12.60;99.90
9998;DHT22;5038;53.064;8.624;2023-05-02T01:04:03;12.60;99.90
9998;DHT22;5038;53.064;8.624;2023-05-02T01:06:45;12.60;99.90
9998;DHT22;5038;53.064;8.624;2023-05-02T01:09:25;12.50;99.90
9998;DHT22;5038;53.064;8.624;2023-05-02T01:12:00;12.50;99.90
9998;DHT22;5038;53.064;8.624;2023-05-02T01:14:33;12.50;99.90
9998;DHT22;5038;53.064;8.624;2023-05-02T01:17:04;12.50;99.90
9998;DHT22;5038;53.064;8.624;2023-05-02T01:19:37;12.50;99.90
9998;DHT22;5038;53.064;8.624;2023-05-02T01:22:08;12.40;99.90
9998;DHT22;5038;53.064;8.624;2023-05-02T01:24:50;12.40;99.90
9998;DHT22;5038;53.064;8.624;2023-05-02T01:27:29;12.40;99.90
9998;DHT22;5038;53.064;8.624;2023-05-02T01:30:03;12.30;99.90
9998;DHT22;5038;53.064;8.624;2023-05-02T01:32:36;12.30;99.90
9998;DHT22;5038;53.064;8.624;2023-05-02T01:35:08;12.30;99.90
9998;DHT22;5038;53.064;8.624;2023-05-02T01:37:38;12.30;99.90
9998;DHT22;5038;53.064;8.624;2023-05-02T01:40:08;12.20;99.90
9998;DHT22;5038;53.064;8.624;2023-05-02T01:42:38;12.20;99.90
9998;DHT22;5038;53.064;8.624;2023-05-02T01:45:10;12.10;99.90
9998;DHT22;5038;53.064;8.624;2023-05-02T01:47:40;12.10;99.90
9998;DHT22;5038;53.064;8.624;2023-05-02T01:50:12;12.00;99.90
9998;DHT22;5038;53.064;8.624;2023-05-02T01:52:43;12.00;99.90
9998;DHT22;5038;53.064;8.624;2023-05-02T01:55:14;11.90;99.90
9998;DHT22;5038;53.064;8.624;2023-05-02T01:57:45;11.90;99.90
9998;DHT22;5038;53.064;8.624;2023-05-02T02:00:15;11.90;99.90
9998;DHT22;5038;53.064;8.624;2023-05-02T02:02:45;11.90;99.90
9998;DHT22;5038;53.064;8.624;2023-05-02T02:05:16;11.80;99.90
9998;DHT22;5038;53.064;8.624;2023-05-02T02:07:46;11.80;99.90
9998;DHT22;5038;53.064;8.624;2023-05-02T02:10:14;11.70;99.90
9998;DHT22;5038;53.064;8.624;2023-05-02T02:12:47;11.60;99.90
9998;DHT22;5038;53.064;8.624;2023-05-02T02:15:21;11.60;99.90
9998;DHT22;5038;53.064;8.624;2023-05-02T02:17:57;11.50;99.90
9998;DHT22;5038;53.064;8.624;2023-05-02T02:20:28;11.40;99.90
9998;DHT22;5038;53.064;8.624;2023-05-02T02:22:59;11.40;99.90
9998;DHT22;5038;53.064;8.624;2023-05-02T02:25:28;11.30;99.90
9998;DHT22;5038;53.064;8.624;2023-05-02T02:27:57;11.20;99.90
9998;DHT22;5038;53.064;8.624;2023-05-02T02:30:28;11.10;99.90
9998;DHT22;5038;53.064;8.624;2023-05-02T02:32:56;11.10;99.90
9998;DHT22;5038;53.064;8.624;2023-05-02T02:35:42;11.00;99.90
9998;DHT22;5038;53.064;8.624;2023-05-02T02:38:19;11.00;99.90
9998;DHT22;5038;53.064;8.624;2023-05-02T02:41:02;10.90;99.90
9998;DHT22;5038;53.064;8.624;2023-05-02T02:43:39;10.80;99.90
9998;DHT22;5038;53.064;8.624;2023-05-02T02:46:18;10.80;99.90
9998;DHT22;5038;53.064;8.624;2023-05-02T02:48:56;10.80;99.90
9998;DHT22;5038;53.064;8.624;2023-05-02T02:51:31;10.80;99.90
9998;DHT22;5038;53.064;8.624;2023-05-02T02:54:08;10.70;99.90
9998;DHT22;5038;53.064;8.624;2023-05-02T02:56:58;10.70;99.90
9998;DHT22;5038;53.064;8.624;2023-05-02T02:59:31;10.60;99.90
9998;DHT22;5038;53.064;8.624;2023-05-02T03:02:05;10.60;99.90
9998;DHT22;5038;53.064;8.624;2023-05-02T03:04:37;10.50;99.90
9998;DHT22;5038;53.064;8.624;2023-05-02T03:07:06;10.50;99.90
9998;DHT22;5038;53.064;8.624;2023-05-02T03:09:41;10.50;99.90
9998;DHT22;5038;53.064;8.624;2023-05-02T03:12:13;10.50;99.90
9998;DHT22;5038;53.064;8.624;2023-05-02T03:14:43;10.50;99.90
9998;DHT22;5038;53.064;8.624;2023-05-02T03:17:12;10.40;99.90
9998;DHT22;5038;53.064;8.624;2023-05-02T03:19:41;10.40;99.90
9998;DHT22;5038;53.064;8.624;2023-05-02T03:22:09;10.40;99.90
9998;DHT22;5038;53.064;8.624;2023-05-02T03:24:37;10.40;99.90
9998;DHT22;5038;53.064;8.624;2023-05-02T03:27:06;10.40;99.90
9998;DHT22;5038;53.064;8.624;2023-05-02T03:29:39;10.30;99.90
9998;DHT22;5038;53.064;8.624;2023-05-02T03:32:10;10.30;99.90
9998;DHT22;5038;53.064;8.624;2023-05-02T03:34:41;10.30;99.90
9998;DHT22;5038;53.064;8.624;2023-05-02T03:37:10;10.20;99.90
9998;DHT22;5038;53.064;8.624;2023-05-02T03:39:38;10.20;99.90
9998;DHT22;5038;53.064;8.624;2023-05-02T03:42:06;10.20;99.90
9998;DHT22;5038;53.064;8.624;2023-05-02T03:44:34;10.10;99.90
9998;DHT22;5038;53.064;8.624;2023-05-02T03:47:02;10.10;99.90
9998;DHT22;5038;53.064;8.624;2023-05-02T03:49:36;10.00;99.90
9998;DHT22;5038;53.064;8.624;2023-05-02T03:52:07;10.00;99.90
9998;DHT22;5038;53.064;8.624;2023-05-02T03:54:36;10.00;99.90
9998;DHT22;5038;53.064;8.624;2023-05-02T03:57:04;9.90;99.90
9998;DHT22;5038;53.064;8.624;2023-05-02T03:59:34;9.90;99.90
9998;DHT22;5038;53.064;8.624;2023-05-02T04:02:12;9.90;99.90
9998;DHT22;5038;53.064;8.624;2023-05-02T04:04:45;9.80;99.90
9998;DHT22;5038;53.064;8.624;2023-05-02T04:07:17;9.80;99.90
9998;DHT22;5038;53.064;8.624;2023-05-02T04:09:56;9.80;99.90
9998;DHT22;5038;53.064;8.624;2023-05-02T04:12:26;9.80;99.90
9998;DHT22;5038;53.064;8.624;2023-05-02T04:14:54;9.70;99.90
9998;DHT22;5038;53.064;8.624;2023-05-02T04:17:26;9.70;99.90
9998;DHT22;5038;53.064;8.624;2023-05-02T04:19:55;9.70;99.90
9998;DHT22;5038;53.064;8.624;2023-05-02T04:22:28;9.60;99.90
9998;DHT22;5038;53.064;8.624;2023-05-02T04:25:00;9.60;99.90
9998;DHT22;5038;53.064;8.624;2023-05-02T04:27:29;9.60;99.90
9998;DHT22;5038;53.064;8.624;2023-05-02T04:29:58;9.60;99.90
9998;DHT22;5038;53.064;8.624;2023-05-02T04:32:27;9.60;99.90
9998;DHT22;5038;53.064;8.624;2023-05-02T04:34:56;9.50;99.90
9998;DHT22;5038;53.064;8.624;2023-05-02T04:37:25;9.50;99.90
9998;DHT22;5038;53.064;8.624;2023-05-02T04:39:55;9.50;99.90
9998;DHT22;5038;53.064;8.624;2023-05-02T04:42:26;9.50;99.90
9998;DHT22;5038;53.064;8.624;2023-05-02T04:45:05;9.50;99.90
9998;DHT22;5038;53.064;8.624;2023-05-02T04:47:34;9.50;99.90
9998;DHT22;5038;53.064;8.624;2023-05-02T04:50:02;9.50;99.90
9998;DHT22;5038;53.064;8.624;2023-05-02T04:52:31;9.50;99.90
9998;DHT22;5038;53.064;8.624;2023-05-02T04:55:00;9.50;99.90
9998;DHT22;5038;53.064;8.624;2023-05-02T04:57:29;9.40;99.90
9998;DHT22;5038;53.064;8.624;2023-05-02T04:59:59;9.40;99.90
9998;DHT22;5038;53.064;8.624;2023-05-02T05:02:28;9.40;99.90
9998;DHT22;5038;53.064;8.624;2023-05-02T05:04:57;9.40;99.90
9998;DHT22;5038;53.064;8.624;2023-05-02T05:07:28;9.40;99.90
9998;DHT22;5038;53.064;8.624;2023-05-02T05:09:57;9.40;99.90
9998;DHT22;5038;53.064;8.624;2023-05-02T05:12:30;9.40;99.90
9998;DHT22;5038;53.064;8.624;2023-05-02T05:14:59;9.40;99.90
9998;DHT22;5038;53.064;8.624;2023-05-02T05:17:28;9.40;99.90
9998;DHT22;5038;53.064;8.624;2023-05-02T05:19:57;9.40;99.90
9998;DHT22;5038;53.064;8.624;2023-05-02T05:22:26;9.40;99.90
9998;DHT22;5038;53.064;8.624;2023-05-02T05:24:55;9.40;99.90
9998;DHT22;5038;53.064;8.624;2023-05-02T05:27:27;9.40;99.90
9998;DHT22;5038;53.064;8.624;2023-05-02T05:29:57;9.40;99.90
9998;DHT22;5038;53.064;8.624;2023-05-02T05:32:26;9.30;99.90
9998;DHT22;5038;53.064;8.624;2023-05-02T05:34:54;9.30;99.90
9998;DHT22;5038;53.064;8.624;2023-05-02T05:37:25;9.30;99.90
9998;DHT22;5038;53.064;8.624;2023-05-02T05:39:55;9.30;99.90
9998;DHT22;5038;53.064;8.624;2023-05-02T05:42:23;9.30;99.90
9998;DHT22;5038;53.064;8.624;2023-05-02T05:44:58;9.30;99.90
9998;DHT22;5038;53.064;8.624;2023-05-02T05:47:26;9.30;99.90
9998;DHT22;5038;53.064;8.624;2023-05-02T05:49:55;9.30;99.90
9998;DHT22;5038;53.064;8.624;2023-05-02T05:52:27;9.30;99.90
9998;DHT22;5038;53.064;8.624;2023-05-02T05:54:58;9.30;99.90
9998;DHT22;5038;53.064;8.624;2023-05-02T05:57:28;9.30;99.90
9998;DHT22;5038;53.064;8.624;2023-05-02T05:59:58;9.20;99.90
9998;DHT22;5038;53.064;8.624;2023-05-02T06:02:27;9.10;99.90
9998;DHT22;5038;53.064;8.624;2023-05-02T06:04:56;9.10;99.90
9998;DHT22;5038;53.064;8.624;2023-05-02T06:07:24;9.10;99.90
9998;DHT22;5038;53.064;8.624;2023-05-02T06:09:53;9.00;99.90
9998;DHT22;5038;53.064;8.624;2023-05-02T06:12:21;9.00;99.90
9998;DHT22;5038;53.064;8.624;2023-05-02T06:14:49;9.00;99.90
9998;DHT22;5038;53.064;8.624;2023-05-02T06:17:19;9.00;99.90
9998;DHT22;5038;53.064;8.624;2023-05-02T06:19:48;9.00;99.90
9998;DHT22;5038;53.064;8.624;2023-05-02T06:22:16;8.90;99.90
9998;DHT22;5038;53.064;8.624;2023-05-02T06:24:44;8.90;99.90
9998;DHT22;5038;53.064;8.624;2023-05-02T06:27:13;8.90;99.90
9998;DHT22;5038;53.064;8.624;2023-05-02T06:29:41;8.90;99.90
9998;DHT22;5038;53.064;8.624;2023-05-02T06:32:09;8.90;99.90
9998;DHT22;5038;53.064;8.624;2023-05-02T06:34:38;8.90;99.90
9998;DHT22;5038;53.064;8.624;2023-05-02T06:37:06;8.90;99.90
9998;DHT22;5038;53.064;8.624;2023-05-02T06:39:35;8.80;99.90
9998;DHT22;5038;53.064;8.624;2023-05-02T06:42:03;8.80;99.90
9998;DHT22;5038;53.064;8.624;2023-05-02T06:44:32;8.80;99.90
9998;DHT22;5038;53.064;8.624;2023-05-02T06:47:00;8.80;99.90
9998;DHT22;5038;53.064;8.624;2023-05-02T06:49:30;8.80;99.90
9998;DHT22;5038;53.064;8.624;2023-05-02T06:52:00;8.80;99.90
9998;DHT22;5038;53.064;8.624;2023-05-02T06:54:28;8.70;99.90
9998;DHT22;5038;53.064;8.624;2023-05-02T06:56:56;8.70;99.90
9998;DHT22;5038;53.064;8.624;2023-05-02T06:59:24;8.70;99.90
9998;DHT22;5038;53.064;8.624;2023-05-02T07:01:52;8.70;99.90
9998;DHT22;5038;53.064;8.624;2023-05-02T07:04:20;8.80;99.90
9998;DHT22;5038;53.064;8.624;2023-05-02T07:06:49;8.80;99.90
9998;DHT22;5038;53.064;8.624;2023-05-02T07:09:18;8.80;99.90
9998;DHT22;5038;53.064;8.624;2023-05-02T07:11:46;8.80;99.90
9998;DHT22;5038;53.064;8.624;2023-05-02T07:14:14;8.80;99.90
9998;DHT22;5038;53.064;8.624;2023-05-02T07:16:43;8.80;99.90
9998;DHT22;5038;53.064;8.624;2023-05-02T07:19:11;8.90;99.90
9998;DHT22;5038;53.064;8.624;2023-05-02T07:21:39;8.90;99.90
9998;DHT22;5038;53.064;8.624;2023-05-02T07:24:07;8.90;99.90
9998;DHT22;5038;53.064;8.624;2023-05-02T07:26:36;8.90;99.90
9998;DHT22;5038;53.064;8.624;2023-05-02T07:29:05;9.00;99.90
9998;DHT22;5038;53.064;8.624;2023-05-02T07:31:34;9.00;99.90
9998;DHT22;5038;53.064;8.624;2023-05-02T07:34:02;9.00;99.90
9998;DHT22;5038;53.064;8.624;2023-05-02T07:36:30;9.00;99.90
9998;DHT22;5038;53.064;8.624;2023-05-02T07:38:58;9.00;99.90
9998;DHT22;5038;53.064;8.624;2023-05-02T07:41:27;9.10;99.90
9998;DHT22;5038;53.064;8.624;2023-05-02T07:43:56;9.10;99.90
9998;DHT22;5038;53.064;8.624;2023-05-02T07:46:24;9.10;99.90
9998;DHT22;5038;53.064;8.624;2023-05-02T07:48:52;9.10;99.90
9998;DHT22;5038;53.064;8.624;2023-05-02T07:51:20;9.20;99.90
9998;DHT22;5038;53.064;8.624;2023-05-02T07:53:49;9.20;99.90
9998;DHT22;5038;53.064;8.624;2023-05-02T07:56:19;9.30;99.90
9998;DHT22;5038;53.064;8.624;2023-05-02T07:58:47;9.30;99.90
9998;DHT22;5038;53.064;8.624;2023-05-02T08:01:17;9.40;99.90
9998;DHT22;5038;53.064;8.624;2023-05-02T08:03:45;9.40;99.90
9998;DHT22;5038;53.064;8.624;2023-05-02T08:06:15;9.40;99.90
9998;DHT22;5038;53.064;8.624;2023-05-02T08:08:43;9.50;99.90
9998;DHT22;5038;53.064;8.624;2023-05-02T08:11:11;9.50;99.90
9998;DHT22;5038;53.064;8.624;2023-05-02T08:13:39;9.50;99.90
9998;DHT22;5038;53.064;8.624;2023-05-02T08:16:08;9.50;99.70
9998;DHT22;5038;53.064;8.624;2023-05-02T08:18:37;9.50;99.70
9998;DHT22;5038;53.064;8.624;2023-05-02T08:21:07;9.60;99.70
9998;DHT22;5038;53.064;8.624;2023-05-02T08:23:35;9.60;99.70
9998;DHT22;5038;53.064;8.624;2023-05-02T08:26:03;9.70;99.60
9998;DHT22;5038;53.064;8.624;2023-05-02T08:28:34;9.70;99.40
9998;DHT22;5038;53.064;8.624;2023-05-02T08:31:02;9.70;99.40
9998;DHT22;5038;53.064;8.624;2023-05-02T08:33:30;9.60;99.50
9998;DHT22;5038;53.064;8.624;2023-05-02T08:35:59;9.70;99.60
9998;DHT22;5038;53.064;8.624;2023-05-02T08:38:27;9.80;99.60
9998;DHT22;5038;53.064;8.624;2023-05-02T08:40:56;9.90;99.60
9998;DHT22;5038;53.064;8.624;2023-05-02T08:43:24;10.00;99.10
9998;DHT22;5038;53.064;8.624;2023-05-02T08:45:53;10.10;99.20
9998;DHT22;5038;53.064;8.624;2023-05-02T08:48:25;10.40;99.40
9998;DHT22;5038;53.064;8.624;2023-05-02T08:50:54;10.50;99.10
9998;DHT22;5038;53.064;8.624;2023-05-02T08:53:24;10.50;98.90
9998;DHT22;5038;53.064;8.624;2023-05-02T08:55:53;10.50;98.70
9998;DHT22;5038;53.064;8.624;2023-05-02T08:58:21;10.40;98.60
9998;DHT22;5038;53.064;8.624;2023-05-02T09:00:50;10.40;98.40
9998;DHT22;5038;53.064;8.624;2023-05-02T09:03:25;10.40;98.50
9998;DHT22;5038;53.064;8.624;2023-05-02T09:06:05;10.30;98.40
9998;DHT22;5038;53.064;8.624;2023-05-02T09:08:36;10.30;98.60
9998;DHT22;5038;53.064;8.624;2023-05-02T09:11:04;10.30;99.00
9998;DHT22;5038;53.064;8.624;2023-05-02T09:13:34;10.30;98.80
9998;DHT22;5038;53.064;8.624;2023-05-02T09:16:04;10.30;98.80
9998;DHT22;5038;53.064;8.624;2023-05-02T09:18:36;10.30;98.70
9998;DHT22;5038;53.064;8.624;2023-05-02T09:21:06;10.40;98.50
9998;DHT22;5038;53.064;8.624;2023-05-02T09:23:38;10.50;98.50
9998;DHT22;5038;53.064;8.624;2023-05-02T09:26:15;10.50;98.40
9998;DHT22;5038;53.064;8.624;2023-05-02T09:28:44;10.70;98.60
9998;DHT22;5038;53.064;8.624;2023-05-02T09:31:14;10.90;98.70
9998;DHT22;5038;53.064;8.624;2023-05-02T09:33:53;11.00;98.50
9998;DHT22;5038;53.064;8.624;2023-05-02T09:36:22;11.20;98.40
9998;DHT22;5038;53.064;8.624;2023-05-02T09:39:07;11.30;98.40
9998;DHT22;5038;53.064;8.624;2023-05-02T09:41:40;11.40;98.00
9998;DHT22;5038;53.064;8.624;2023-05-02T09:44:09;11.40;98.00
9998;DHT22;5038;53.064;8.624;2023-05-02T09:46:41;11.50;98.00
9998;DHT22;5038;53.064;8.624;2023-05-02T09:49:10;11.50;97.70
9998;DHT22;5038;53.064;8.624;2023-05-02T09:51:38;11.50;97.60
9998;DHT22;5038;53.064;8.624;2023-05-02T09:54:08;11.50;97.60
9998;DHT22;5038;53.064;8.624;2023-05-02T09:56:51;11.40;97.50
9998;DHT22;5038;53.064;8.624;2023-05-02T09:59:19;11.40;97.40
9998;DHT22;5038;53.064;8.624;2023-05-02T10:01:54;11.40;97.80
9998;DHT22;5038;53.064;8.624;2023-05-02T10:04:23;11.40;97.40
9998;DHT22;5038;53.064;8.624;2023-05-02T10:06:52;11.40;97.50
9998;DHT22;5038;53.064;8.624;2023-05-02T10:09:22;11.50;97.40
9998;DHT22;5038;53.064;8.624;2023-05-02T10:11:52;11.60;97.60
9998;DHT22;5038;53.064;8.624;2023-05-02T10:14:21;11.80;97.80
9998;DHT22;5038;53.064;8.624;2023-05-02T10:16:59;12.00;97.90
9998;DHT22;5038;53.064;8.624;2023-05-02T10:19:31;12.00;97.50
9998;DHT22;5038;53.064;8.624;2023-05-02T10:22:02;12.00;97.40
9998;DHT22;5038;53.064;8.624;2023-05-02T10:24:32;12.00;97.30
9998;DHT22;5038;53.064;8.624;2023-05-02T10:27:00;12.10;97.10
9998;DHT22;5038;53.064;8.624;2023-05-02T10:29:31;12.00;97.10
9998;DHT22;5038;53.064;8.624;2023-05-02T10:32:02;12.00;97.00
9998;DHT22;5038;53.064;8.624;2023-05-02T10:34:31;11.90;96.80
9998;DHT22;5038;53.064;8.624;2023-05-02T10:37:00;11.80;96.80
9998;DHT22;5038;53.064;8.624;2023-05-02T10:39:28;11.80;96.90
9998;DHT22;5038;53.064;8.624;2023-05-02T10:41:59;11.80;96.90
9998;DHT22;5038;53.064;8.624;2023-05-02T10:44:32;11.80;97.00
9998;DHT22;5038;53.064;8.624;2023-05-02T10:47:01;11.80;97.20
9998;DHT22;5038;53.064;8.624;2023-05-02T10:49:51;11.80;97.30
9998;DHT22;5038;53.064;8.624;2023-05-02T10:52:27;11.80;97.40
9998;DHT22;5038;53.064;8.624;2023-05-02T10:55:15;11.80;97.40
9998;DHT22;5038;53.064;8.624;2023-05-02T10:58:20;11.80;97.50
9998;DHT22;5038;53.064;8.624;2023-05-02T11:00:49;11.80;97.40
9998;DHT22;5038;53.064;8.624;2023-05-02T11:06:18;11.80;97.50
9998;DHT22;5038;53.064;8.624;2023-05-02T11:08:46;11.70;97.60
9998;DHT22;5038;53.064;8.624;2023-05-02T11:11:40;11.70;97.60
9998;DHT22;5038;53.064;8.624;2023-05-02T11:14:12;11.70;97.70
9998;DHT22;5038;53.064;8.624;2023-05-02T11:17:10;11.70;97.80
9998;DHT22;5038;53.064;8.624;2023-05-02T11:22:58;11.70;97.80
9998;DHT22;5038;53.064;8.624;2023-05-02T11:25:48;11.60;97.90
9998;DHT22;5038;53.064;8.624;2023-05-02T11:28:39;11.70;98.00
9998;DHT22;5038;53.064;8.624;2023-05-02T11:31:08;11.70;98.00
9998;DHT22;5038;53.064;8.624;2023-05-02T11:33:38;11.70;98.00
9998;DHT22;5038;53.064;8.624;2023-05-02T11:36:06;11.70;98.00
9998;DHT22;5038;53.064;8.624;2023-05-02T11:38:35;11.70;98.00
9998;DHT22;5038;53.064;8.624;2023-05-02T11:41:04;11.60;98.00
9998;DHT22;5038;53.064;8.624;2023-05-02T11:43:32;11.60;98.00
9998;DHT22;5038;53.064;8.624;2023-05-02T11:46:01;11.60;98.00
9998;DHT22;5038;53.064;8.624;2023-05-02T11:48:31;11.70;98.00
9998;DHT22;5038;53.064;8.624;2023-05-02T11:51:00;11.70;98.10
9998;DHT22;5038;53.064;8.624;2023-05-02T11:53:33;11.70;98.00
9998;DHT22;5038;53.064;8.624;2023-05-02T11:56:07;11.80;98.00
9998;DHT22;5038;53.064;8.624;2023-05-02T11:58:35;11.90;97.80
9998;DHT22;5038;53.064;8.624;2023-05-02T12:01:11;11.90;97.70
9998;DHT22;5038;53.064;8.624;2023-05-02T12:03:40;11.90;97.60
9998;DHT22;5038;53.064;8.624;2023-05-02T12:06:10;11.90;97.40
9998;DHT22;5038;53.064;8.624;2023-05-02T12:08:41;11.90;97.30
9998;DHT22;5038;53.064;8.624;2023-05-02T12:11:12;11.90;97.50
9998;DHT22;5038;53.064;8.624;2023-05-02T12:13:44;11.90;97.70
9998;DHT22;5038;53.064;8.624;2023-05-02T12:16:13;12.00;97.90
9998;DHT22;5038;53.064;8.624;2023-05-02T12:18:42;12.00;98.00
9998;DHT22;5038;53.064;8.624;2023-05-02T12:21:12;12.10;98.10
9998;DHT22;5038;53.064;8.624;2023-05-02T12:23:40;12.10;98.00
9998;DHT22;5038;53.064;8.624;2023-05-02T12:26:18;12.10;98.10
9998;DHT22;5038;53.064;8.624;2023-05-02T12:28:48;12.20;98.20
9998;DHT22;5038;53.064;8.624;2023-05-02T12:31:17;12.20;98.10
9998;DHT22;5038;53.064;8.624;2023-05-02T12:33:46;12.30;98.00
9998;DHT22;5038;53.064;8.624;2023-05-02T12:36:17;12.30;97.90
9998;DHT22;5038;53.064;8.624;2023-05-02T12:38:49;12.30;97.90
9998;DHT22;5038;53.064;8.624;2023-05-02T12:41:30;12.30;97.70
9998;DHT22;5038;53.064;8.624;2023-05-02T12:43:59;12.30;97.60
9998;DHT22;5038;53.064;8.624;2023-05-02T12:46:27;12.30;97.70
9998;DHT22;5038;53.064;8.624;2023-05-02T12:49:02;12.20;97.60
9998;DHT22;5038;53.064;8.624;2023-05-02T12:51:32;12.20;97.40
9998;DHT22;5038;53.064;8.624;2023-05-02T12:54:01;12.20;97.40
9998;DHT22;5038;53.064;8.624;2023-05-02T12:56:29;12.20;97.30
9998;DHT22;5038;53.064;8.624;2023-05-02T12:59:05;12.20;97.20
9998;DHT22;5038;53.064;8.624;2023-05-02T13:01:33;12.30;97.00
9998;DHT22;5038;53.064;8.624;2023-05-02T13:04:02;12.30;96.90
9998;DHT22;5038;53.064;8.624;2023-05-02T13:06:32;12.30;96.80
9998;DHT22;5038;53.064;8.624;2023-05-02T13:09:03;12.30;96.70
9998;DHT22;5038;53.064;8.624;2023-05-02T13:11:31;12.30;96.70
9998;DHT22;5038;53.064;8.624;2023-05-02T13:14:00;12.30;96.50
9998;DHT22;5038;53.064;8.624;2023-05-02T13:16:30;12.30;96.40
9998;DHT22;5038;53.064;8.624;2023-05-02T13:19:00;12.30;96.20
9998;DHT22;5038;53.064;8.624;2023-05-02T13:21:28;12.30;96.30
9998;DHT22;5038;53.064;8.624;2023-05-02T13:23:58;12.30;96.50
9998;DHT22;5038;53.064;8.624;2023-05-02T13:26:27;12.40;96.80
9998;DHT22;5038;53.064;8.624;2023-05-02T13:28:55;12.40;96.90
9998;DHT22;5038;53.064;8.624;2023-05-02T13:31:23;12.40;96.90
9998;DHT22;5038;53.064;8.624;2023-05-02T13:33:51;12.50;97.10
9998;DHT22;5038;53.064;8.624;2023-05-02T13:36:19;12.50;97.10
9998;DHT22;5038;53.064;8.624;2023-05-02T13:38:47;12.50;97.10
9998;DHT22;5038;53.064;8.624;2023-05-02T13:41:17;12.50;97.20
9998;DHT22;5038;53.064;8.624;2023-05-02T13:43:45;12.50;97.10
9998;DHT22;5038;53.064;8.624;2023-05-02T13:46:14;12.50;97.10
9998;DHT22;5038;53.064;8.624;2023-05-02T13:48:42;12.50;97.00
9998;DHT22;5038;53.064;8.624;2023-05-02T13:51:10;12.50;96.90
9998;DHT22;5038;53.064;8.624;2023-05-02T13:53:38;12.50;96.70
9998;DHT22;5038;53.064;8.624;2023-05-02T13:56:06;12.40;96.50
9998;DHT22;5038;53.064;8.624;2023-05-02T13:58:36;12.40;96.50
9998;DHT22;5038;53.064;8.624;2023-05-02T14:01:04;12.30;96.50
9998;DHT22;5038;53.064;8.624;2023-05-02T14:03:32;12.30;96.50
9998;DHT22;5038;53.064;8.624;2023-05-02T14:06:00;12.20;96.50
9998;DHT22;5038;53.064;8.624;2023-05-02T14:08:28;12.20;96.70
9998;DHT22;5038;53.064;8.624;2023-05-02T14:10:56;12.20;96.90
9998;DHT22;5038;53.064;8.624;2023-05-02T14:13:24;12.20;96.90
9998;DHT22;5038;53.064;8.624;2023-05-02T14:15:54;12.10;97.00
9998;DHT22;5038;53.064;8.624;2023-05-02T14:18:24;12.20;97.20
9998;DHT22;5038;53.064;8.624;2023-05-02T14:20:52;12.20;97.20
9998;DHT22;5038;53.064;8.624;2023-05-02T14:23:21;12.30;97.30
9998;DHT22;5038;53.064;8.624;2023-05-02T14:25:49;12.40;97.40
9998;DHT22;5038;53.064;8.624;2023-05-02T14:28:17;12.40;97.40
9998;DHT22;5038;53.064;8.624;2023-05-02T14:30:47;12.50;97.30
9998;DHT22;5038;53.064;8.624;2023-05-02T14:33:16;12.50;97.10
9998;DHT22;5038;53.064;8.624;2023-05-02T14:35:44;12.60;97.00
9998;DHT22;5038;53.064;8.624;2023-05-02T14:38:12;12.60;96.80
9998;DHT22;5038;53.064;8.624;2023-05-02T14:40:40;12.70;96.70
9998;DHT22;5038;53.064;8.624;2023-05-02T14:43:08;12.70;96.40
9998;DHT22;5038;53.064;8.624;2023-05-02T14:45:39;12.60;96.70
9998;DHT22;5038;53.064;8.624;2023-05-02T14:48:07;12.60;96.30
9998;DHT22;5038;53.064;8.624;2023-05-02T14:50:37;12.50;96.00
9998;DHT22;5038;53.064;8.624;2023-05-02T14:53:06;12.50;96.00
9998;DHT22;5038;53.064;8.624;2023-05-02T14:55:37;12.40;95.90
9998;DHT22;5038;53.064;8.624;2023-05-02T14:58:05;12.40;95.90
9998;DHT22;5038;53.064;8.624;2023-05-02T15:00:34;12.40;95.80
9998;DHT22;5038;53.064;8.624;2023-05-02T15:03:03;12.40;95.70
9998;DHT22;5038;53.064;8.624;2023-05-02T15:05:35;12.30;95.60
9998;DHT22;5038;53.064;8.624;2023-05-02T15:08:05;12.20;95.50
9998;DHT22;5038;53.064;8.624;2023-05-02T15:10:35;12.10;95.50
9998;DHT22;5038;53.064;8.624;2023-05-02T15:13:04;12.00;95.70
9998;DHT22;5038;53.064;8.624;2023-05-02T15:15:33;12.00;95.70
9998;DHT22;5038;53.064;8.624;2023-05-02T15:18:01;11.90;95.60
9998;DHT22;5038;53.064;8.624;2023-05-02T15:20:29;11.90;95.60
9998;DHT22;5038;53.064;8.624;2023-05-02T15:22:57;11.90;95.70
9998;DHT22;5038;53.064;8.624;2023-05-02T15:25:30;11.90;95.70
9998;DHT22;5038;53.064;8.624;2023-05-02T15:27:58;11.90;95.70
9998;DHT22;5038;53.064;8.624;2023-05-02T15:30:28;11.90;95.80
9998;DHT22;5038;53.064;8.624;2023-05-02T15:32:56;12.00;95.90
9998;DHT22;5038;53.064;8.624;2023-05-02T15:35:24;12.00;95.90
9998;DHT22;5038;53.064;8.624;2023-05-02T15:37:52;12.10;96.00
9998;DHT22;5038;53.064;8.624;2023-05-02T15:40:20;12.10;96.00
9998;DHT22;5038;53.064;8.624;2023-05-02T15:42:49;12.10;95.90
9998;DHT22;5038;53.064;8.624;2023-05-02T15:45:17;12.20;96.20
9998;DHT22;5038;53.064;8.624;2023-05-02T15:47:45;12.10;96.00
9998;DHT22;5038;53.064;8.624;2023-05-02T15:50:14;12.20;96.00
9998;DHT22;5038;53.064;8.624;2023-05-02T15:52:42;12.20;96.00
9998;DHT22;5038;53.064;8.624;2023-05-02T15:55:10;12.20;96.40
9998;DHT22;5038;53.064;8.624;2023-05-02T15:57:38;12.20;96.20
9998;DHT22;5038;53.064;8.624;2023-05-02T16:00:09;12.10;96.30
9998;DHT22;5038;53.064;8.624;2023-05-02T16:02:42;12.10;96.40
9998;DHT22;5038;53.064;8.624;2023-05-02T16:05:11;12.10;96.30
9998;DHT22;5038;53.064;8.624;2023-05-02T16:07:39;12.10;96.30
9998;DHT22;5038;53.064;8.624;2023-05-02T16:10:08;12.00;96.40
9998;DHT22;5038;53.064;8.624;2023-05-02T16:12:36;12.00;96.50
9998;DHT22;5038;53.064;8.624;2023-05-02T16:15:05;12.00;96.50
9998;DHT22;5038;53.064;8.624;2023-05-02T16:17:35;11.90;96.40
9998;DHT22;5038;53.064;8.624;2023-05-02T16:20:04;11.90;96.40
9998;DHT22;5038;53.064;8.624;2023-05-02T16:22:32;11.90;96.50
9998;DHT22;5038;53.064;8.624;2023-05-02T16:25:00;11.90;96.40
9998;DHT22;5038;53.064;8.624;2023-05-02T16:27:28;11.90;96.40
9998;DHT22;5038;53.064;8.624;2023-05-02T16:29:57;11.90;96.40
9998;DHT22;5038;53.064;8.624;2023-05-02T16:32:27;11.90;96.40
9998;DHT22;5038;53.064;8.624;2023-05-02T16:34:56;12.00;96.60